Time;durP1;ratioP1;P1;durP2;ratioP2;P2;SDS_P1;SDS_P2;PMS_P1;PMS_P2;Temp;Humidity;BMP_temperature;BMP_pressure;BME280_temperature;BME280_humidity;BME280_pressure;Samples;Min_cycle;Max_cycle;Signal;HPM_P1;HPM_P2
2023/05/08 00:01:37;;;;;;;;;15.50;14.00;;;;;8.18;92.81;100009.88;6284888;20;2810723;-56
2023/05/08 00:04:04;;;;;;;;;20.00;20.00;;;;;7.94;93.83;100008.34;6285729;20;2839921;-55
2023/05/08 00:06:33;;;;;;;;;52.00;43.00;;;;;7.91;96.06;100012.03;6279072;20;2852323;-52
2023/05/08 00:09:02;;;;;;;;;53.00;42.33;;;;;7.97;96.11;100006.38;6279840;20;2866971;-53
2023/05/08 00:11:31;;;;;;;;;56.67;45.00;;;;;7.74;97.30;100010.13;6309775;20;3614850;-53
2023/05/08 00:14:00;;;;;;;;;62.33;49.00;;;;;7.87;98.14;100008.63;6310152;20;2877563;-53
2023/05/08 00:16:30;;;;;;;;;49.00;37.67;;;;;7.98;96.90;100023.28;6311012;20;2862881;-54
2023/05/08 00:19:00;;;;;;;;;36.67;33.33;;;;;7.90;97.30;100010.28;6314819;20;2859812;-52
2023/05/08 00:21:30;;;;;;;;;33.00;25.33;;;;;7.99;97.41;100009.00;6312564;20;2859694;-54
2023/05/08 00:23:58;;;;;;;;;30.00;27.00;;;;;7.75;98.33;100021.66;6314016;20;2852329;-52
2023/05/08 00:26:26;;;;;;;;;22.50;21.00;;;;;7.86;97.94;100019.38;6282232;20;2846224;-54
2023/05/08 00:28:54;;;;;;;;;24.00;23.00;;;;;7.99;98.13;100014.34;6281359;20;2553985;-53
2023/05/08 00:31:22;;;;;;;;;24.50;22.00;;;;;8.05;98.38;100016.72;6313731;20;2833638;-54
2023/05/08 00:33:51;;;;;;;;;25.00;23.00;;;;;7.96;98.33;100015.34;6281770;20;2837887;-55
2023/05/08 00:36:19;;;;;;;;;27.50;23.50;;;;;7.99;98.80;100012.53;6279734;20;2846089;-55
2023/05/08 00:38:47;;;;;;;;;20.67;19.33;;;;;7.96;99.33;100015.34;6284272;20;3577357;-50
2023/05/08 00:41:15;;;;;;;;;23.50;20.00;;;;;8.32;97.68;100023.50;6281153;20;2500382;-54
2023/05/08 00:43:42;;;;;;;;;20.00;19.50;;;;;8.00;98.65;100016.94;6276376;20;2500358;-53
2023/05/08 00:46:12;;;;;;;;;28.67;26.33;;;;;7.86;98.17;100022.06;6280251;20;2843063;-52
2023/05/08 00:48:41;;;;;;;;;33.50;33.00;;;;;7.76;99.32;100026.06;6312040;20;2859658;-55
2023/05/08 00:51:10;;;;;;;;;34.50;28.00;;;;;7.50;99.11;100017.38;6279293;20;2848216;-51
2023/05/08 00:53:42;;;;;;;;;26.00;22.50;;;;;7.39;100.00;100017.00;6275009;20;2830505;-51
2023/05/08 00:56:13;;;;;;;;;25.00;21.50;;;;;7.30;100.00;100017.41;6280696;20;2837812;-49
2023/05/08 00:58:42;;;;;;;;;24.00;24.00;;;;;7.32;100.00;100011.06;6285172;20;2500328;-52
2023/05/08 01:01:11;;;;;;;;;26.50;24.50;;;;;7.38;100.00;100017.94;6308068;20;2844050;-50
2023/05/08 01:03:39;;;;;;;;;23.50;23.00;;;;;7.21;100.00;100010.63;6276227;20;2504419;-53
2023/05/08 01:06:07;;;;;;;;;21.50;21.50;;;;;7.29;100.00;100012.97;6276566;20;2500333;-50
2023/05/08 01:08:34;;;;;;;;;17.50;15.50;;;;;7.48;100.00;100016.63;6279516;20;2500456;-52
2023/05/08 01:11:12;;;;;;;;;20.33;18.33;;;;;7.27;98.58;100021.06;6274023;20;3560671;-50
2023/05/08 01:14:04;;;;;;;;;12.50;12.50;;;;;7.19;98.57;100026.75;6278487;20;2802461;-49
2023/05/08 01:16:44;;;;;;;;;17.00;16.00;;;;;7.12;99.29;100027.91;6279630;20;2819068;-53
2023/05/08 01:19:39;;;;;;;;;20.00;19.50;;;;;7.10;100.00;100027.09;6281894;20;2841973;-55
2023/05/08 01:22:58;;;;;;;;;20.50;20.50;;;;;7.02;99.34;100027.44;6281550;20;2839926;-54
2023/05/08 01:26:14;;;;;;;;;15.00;15.00;;;;;7.20;98.90;100033.81;6280012;20;2801356;-51
2023/05/08 01:29:42;;;;;;;;;17.00;16.00;;;;;7.00;99.05;100033.75;6282822;20;2815949;-51
2023/05/08 01:32:29;;;;;;;;;15.50;15.50;;;;;7.36;99.52;100042.03;6279431;20;2807645;-52
2023/05/08 01:35:09;;;;;;;;;16.50;16.50;;;;;7.36;97.84;100042.03;6278718;20;2500279;-52
2023/05/08 01:37:45;;;;;;;;;17.00;17.00;;;;;7.22;98.10;100039.09;6277600;20;2500292;-50
2023/05/08 01:40:39;;;;;;;;;22.50;19.00;;;;;6.90;99.99;100043.06;6277776;20;2500252;-50
2023/05/08 01:43:24;;;;;;;;;23.50;18.00;;;;;7.20;100.00;100046.28;6280407;20;2839992;-55
2023/05/08 01:45:55;;;;;;;;;27.50;25.50;;;;;6.90;100.00;100046.63;6278521;20;2846115;-53
2023/05/08 01:49:02;;;;;;;;;23.50;23.50;;;;;6.74;100.00;100048.16;6276241;20;2840887;-52
2023/05/08 01:51:40;;;;;;;;;26.00;25.50;;;;;6.81;100.00;100039.84;6280116;20;2841008;-54
2023/05/08 01:54:14;;;;;;;;;34.33;28.67;;;;;7.06;100.00;100038.88;6274359;20;2859725;-54
2023/05/08 01:56:45;;;;;;;;;28.00;26.00;;;;;6.61;100.00;100042.47;6309452;20;2850282;-52
2023/05/08 01:59:18;;;;;;;;;27.00;23.00;;;;;6.76;100.00;100041.84;6278502;20;2835665;-52
2023/05/08 02:01:49;;;;;;;;;28.00;23.00;;;;;6.84;100.00;100040.66;6274009;20;2500331;-54
2023/05/08 02:04:18;;;;;;;;;27.50;26.00;;;;;6.83;100.00;100042.47;6275845;20;2500330;-53
2023/05/08 02:06:47;;;;;;;;;34.00;30.50;;;;;7.08;100.00;100044.13;6278973;20;2857672;-54
2023/05/08 02:09:15;;;;;;;;;27.50;24.50;;;;;7.10;100.00;100045.78;6279796;20;2500428;-53
2023/05/08 02:11:46;;;;;;;;;67.00;54.00;;;;;6.97;100.00;100049.91;6275786;20;2871244;-53
2023/05/08 02:14:19;;;;;;;;;74.00;56.00;;;;;6.89;100.00;100052.03;6311863;20;3627369;-54
2023/05/08 02:16:50;;;;;;;;;68.00;52.33;;;;;6.92;100.00;100050.09;6314509;20;3621214;-53
2023/05/08 02:19:22;;;;;;;;;57.00;46.50;;;;;6.79;100.00;100057.75;6312225;20;2871182;-53
2023/05/08 02:21:52;;;;;;;;;42.00;35.67;;;;;7.04;100.00;100059.41;6285176;20;3596139;-55
2023/05/08 02:24:22;;;;;;;;;28.00;27.50;;;;;6.97;100.00;100063.25;6280187;20;2843020;-52
2023/05/08 02:26:53;;;;;;;;;22.50;22.50;;;;;7.10;100.00;100064.50;6282714;20;2840930;-54
2023/05/08 02:29:23;;;;;;;;;23.00;21.00;;;;;7.05;100.00;100061.13;6280507;20;2496132;-53
2023/05/08 02:31:53;;;;;;;;;26.00;24.50;;;;;7.08;100.00;100063.69;6283824;20;2835702;-51
2023/05/08 02:34:23;;;;;;;;;19.33;18.67;;;;;7.00;100.00;100060.47;6280354;20;3570057;-54
2023/05/08 02:36:53;;;;;;;;;18.00;14.67;;;;;7.26;100.00;100062.91;6282226;20;3550281;-49
2023/05/08 02:39:25;;;;;;;;;22.33;21.00;;;;;7.00;100.00;100068.47;6314169;20;3560711;-54
2023/05/08 02:41:52;;;;;;;;;20.50;19.00;;;;;6.98;100.00;100068.53;6282208;20;2500350;-55
2023/05/08 02:44:20;;;;;;;;;19.50;19.50;;;;;7.32;100.00;100068.94;6284322;20;2496113;-54
2023/05/08 02:47:18;;;;;;;;;16.00;14.33;;;;;7.32;100.00;100064.47;6283317;20;2812918;-52
2023/05/08 02:50:10;;;;;;;;;18.00;17.67;;;;;7.33;100.00;100076.03;6312667;20;3557565;-50
2023/05/08 02:52:48;;;;;;;;;21.00;20.00;;;;;7.21;100.00;100074.72;6284346;20;3571090;-53
2023/05/08 02:55:41;;;;;;;;;16.33;16.33;;;;;7.41;100.00;100071.22;6282975;20;3561790;-52
2023/05/08 02:58:56;;;;;;;;;19.00;16.67;;;;;7.22;100.00;100076.47;6282566;20;3559669;-55
2023/05/08 03:01:32;;;;;;;;;21.00;19.00;;;;;7.14;100.00;100073.25;6277942;20;2844092;-54
2023/05/08 03:04:07;;;;;;;;;22.00;18.00;;;;;7.38;100.00;100077.56;6277236;20;2500335;-55
2023/05/08 03:06:44;;;;;;;;;17.00;17.00;;;;;7.22;100.00;100081.81;6275827;20;3550379;-56
2023/05/08 03:09:18;;;;;;;;;20.50;18.00;;;;;7.14;100.00;100074.13;6280828;20;2500275;-54
2023/05/08 03:11:49;;;;;;;;;20.50;19.00;;;;;7.22;100.00;100080.00;6281513;20;2840420;-54
2023/05/08 03:14:21;;;;;;;;;22.00;20.00;;;;;7.18;100.00;100078.38;6282437;20;2498209;-51
2023/05/08 03:16:52;;;;;;;;;23.33;19.00;;;;;7.48;100.00;100080.72;6281854;20;3572336;-55
2023/05/08 03:19:33;;;;;;;;;23.00;20.00;;;;;7.59;100.00;100081.13;6274511;20;2500303;-51
2023/05/08 03:22:04;;;;;;;;;18.00;18.00;;;;;7.21;100.00;100082.72;6281753;20;2500838;-55
2023/05/08 03:24:36;;;;;;;;;22.50;19.00;;;;;7.22;100.00;100074.66;6277751;20;2500311;-56
2023/05/08 03:27:06;;;;;;;;;23.67;23.67;;;;;7.42;100.00;100083.63;6279057;20;3567941;-55
2023/05/08 03:29:35;;;;;;;;;18.50;18.50;;;;;7.41;100.00;100077.44;6283779;20;2835711;-55
2023/05/08 03:32:03;;;;;;;;;20.50;20.50;;;;;7.56;100.00;100075.94;6280658;20;2496146;-54
2023/05/08 03:34:32;;;;;;;;;25.50;24.00;;;;;7.62;100.00;100081.00;6279421;20;2846104;-55
2023/05/08 03:37:01;;;;;;;;;45.33;35.67;;;;;7.59;100.00;100089.16;6283049;20;2881890;-53
2023/05/08 03:39:30;;;;;;;;;37.00;31.67;;;;;7.67;100.00;100081.66;6315831;20;3587878;-54
2023/05/08 03:41:59;;;;;;;;;40.67;32.33;;;;;7.74;100.00;100089.41;6312612;20;3605587;-55
2023/05/08 03:44:29;;;;;;;;;33.00;28.67;;;;;7.90;98.80;100090.50;6315108;20;3609744;-54
2023/05/08 03:46:58;;;;;;;;;20.00;19.00;;;;;7.85;99.61;100092.50;6279481;20;2500264;-55
2023/05/08 03:49:25;;;;;;;;;26.00;21.00;;;;;7.56;100.00;100089.28;6279688;20;2494121;-55
2023/05/08 03:51:55;;;;;;;;;23.50;20.00;;;;;7.49;100.00;100087.78;6280509;20;2828374;-56
2023/05/08 03:54:24;;;;;;;;;22.00;21.50;;;;;7.76;100.00;100087.53;6282342;20;2500269;-55
2023/05/08 03:56:53;;;;;;;;;17.50;16.00;;;;;7.80;100.00;100090.03;6279971;20;2498184;-54
2023/05/08 04:00:08;;;;;;;;;26.00;22.50;;;;;7.80;100.00;100091.84;6280906;20;2848186;-52
2023/05/08 04:02:39;;;;;;;;;24.00;20.50;;;;;8.02;100.00;100086.41;6278510;20;2835737;-55
2023/05/08 04:05:36;;;;;;;;;28.00;23.00;;;;;8.27;100.00;100087.03;6279569;20;2496108;-56
2023/05/08 04:08:28;;;;;;;;;22.50;17.50;;;;;8.40;96.88;100094.50;6280054;20;2835762;-53
2023/05/08 04:11:35;;;;;;;;;17.00;15.50;;;;;8.48;95.94;100097.72;6284836;20;2811758;-54
2023/05/08 04:14:07;;;;;;;;;18.50;18.50;;;;;8.37;97.87;100106.19;6277212;20;2500294;-54
2023/05/08 04:16:39;;;;;;;;;22.50;22.00;;;;;8.50;97.90;100109.22;6278572;20;2846131;-54
2023/05/08 04:19:18;;;;;;;;;21.00;19.00;;;;;8.48;99.47;100109.28;6279692;20;3566053;-54
2023/05/08 04:21:49;;;;;;;;;23.00;22.00;;;;;8.15;100.00;100119.69;6279443;20;2500445;-51
2023/05/08 04:24:18;;;;;;;;;25.00;23.50;;;;;8.52;100.00;100118.91;6280847;20;2848400;-53
2023/05/08 04:26:48;;;;;;;;;35.00;27.67;;;;;8.70;100.00;100124.34;6278467;20;3620102;-54
2023/05/08 04:29:17;;;;;;;;;25.00;23.50;;;;;8.75;99.06;100125.00;6308703;20;2833703;-55
2023/05/08 04:31:47;;;;;;;;;21.67;20.33;;;;;8.88;97.17;100136.88;6282059;20;3577347;-53
2023/05/08 04:34:15;;;;;;;;;23.00;17.50;;;;;8.94;97.07;100136.56;6280673;20;2492040;-52
2023/05/08 04:36:43;;;;;;;;;19.00;18.00;;;;;9.01;96.14;100148.72;6277983;20;3552347;-54
2023/05/08 04:39:12;;;;;;;;;18.00;18.00;;;;;8.88;95.42;100144.91;6280222;20;3559625;-54
2023/05/08 04:41:40;;;;;;;;;18.33;16.33;;;;;8.77;96.86;100153.44;6280096;20;3554530;-53
2023/05/08 04:44:08;;;;;;;;;16.33;16.33;;;;;9.10;96.05;100149.22;6274790;20;3556556;-49
2023/05/08 04:46:36;;;;;;;;;18.50;15.00;;;;;9.28;95.79;100153.69;6262195;20;2498279;-55
2023/05/08 04:49:04;;;;;;;;;17.50;17.50;;;;;9.26;94.77;100152.91;6276904;20;2821278;-53
2023/05/08 04:51:31;;;;;;;;;22.00;19.00;;;;;9.27;93.54;100157.34;6276228;20;2498211;-53
2023/05/08 04:54:00;;;;;;;;;17.00;15.67;;;;;9.37;93.51;100155.06;6274144;20;3535064;-56
2023/05/08 04:56:27;;;;;;;;;15.00;13.50;;;;;9.53;93.05;100163.19;6312054;20;2801390;-55
2023/05/08 04:58:55;;;;;;;;;17.67;14.67;;;;;9.47;94.30;100164.38;6282344;20;3549417;-55
2023/05/08 05:01:22;;;;;;;;;14.00;14.00;;;;;9.66;92.64;100169.69;6280512;20;2809675;-54
2023/05/08 05:03:49;;;;;;;;;13.00;13.00;;;;;9.54;92.29;100175.69;6286332;20;2806615;-53
2023/05/08 05:06:18;;;;;;;;;13.33;13.33;;;;;9.79;90.79;100178.84;6278984;20;3526339;-56
2023/05/08 05:08:45;;;;;;;;;12.50;12.50;;;;;9.63;90.10;100180.56;6312791;20;2806571;-53
2023/05/08 05:11:12;;;;;;;;;12.50;11.00;;;;;9.92;88.25;100178.25;6281408;20;2792074;-54
2023/05/08 05:13:41;;;;;;;;;10.00;10.00;;;;;9.97;86.45;100186.94;6304551;20;2775328;-53
2023/05/08 05:16:09;;;;;;;;;11.00;11.00;;;;;10.06;85.79;100194.53;6277628;20;2792146;-52
2023/05/08 05:18:36;;;;;;;;;11.00;8.00;;;;;9.88;87.04;100185.59;6281548;20;2775438;-54
2023/05/08 05:21:03;;;;;;;;;11.00;11.00;;;;;10.14;86.38;100192.31;6282231;20;2791939;-56
2023/05/08 05:23:30;;;;;;;;;11.00;10.00;;;;;10.17;86.93;100191.28;6286124;20;2784817;-50
2023/05/08 05:25:58;;;;;;;;;11.00;11.00;;;;;10.28;87.09;100192.47;6283801;20;2794068;-54
2023/05/08 05:28:25;;;;;;;;;8.00;7.00;;;;;10.38;83.67;100192.00;6282897;20;2740932;-54
2023/05/08 05:30:56;;;;;;;;;11.43;11.43;;;;;10.57;84.01;100198.13;6351890;20;1798223;-53
2023/05/08 05:33:23;;;;;;;;;9.00;7.50;;;;;10.74;84.03;100203.47;6311375;20;2755573;-55
2023/05/08 05:35:51;;;;;;;;;11.67;9.67;;;;;10.54;83.47;100199.16;6275844;20;2783742;-54
2023/05/08 05:38:20;;;;;;;;;10.80;8.00;;;;;10.65;80.67;100193.22;6335690;20;2743139;-55
2023/05/08 05:40:48;;;;;;;;;9.00;8.50;;;;;10.75;80.60;100194.44;6313573;20;2767021;-52
2023/05/08 05:43:17;;;;;;;;;10.80;9.00;;;;;10.66;80.50;100189.56;6304380;20;2778481;-52
2023/05/08 05:45:44;;;;;;;;;9.00;8.00;;;;;10.94;81.37;100197.00;6284996;20;2746225;-51
2023/05/08 05:48:11;;;;;;;;;9.00;9.00;;;;;10.68;81.89;100193.03;6282629;20;2747418;-54
2023/05/08 05:50:39;;;;;;;;;9.00;9.00;;;;;11.03;80.78;100200.97;6283348;20;2752372;-51
2023/05/08 05:53:06;;;;;;;;;9.00;9.00;;;;;11.21;79.33;100197.28;6280961;20;2751340;-56
2023/05/08 05:55:34;;;;;;;;;10.00;9.33;;;;;11.46;79.62;100200.44;6280905;20;2766094;-53
2023/05/08 05:58:03;;;;;;;;;9.60;9.60;;;;;11.54;78.25;100209.78;6337330;20;2761771;-56
2023/05/08 06:00:32;;;;;;;;;8.60;8.60;;;;;11.86;78.23;100209.78;6308093;20;2754467;-56
2023/05/08 06:03:01;;;;;;;;;86.33;73.33;;;;;11.96;77.81;100216.34;6302452;20;3651467;-57
2023/05/08 06:05:29;;;;;;;;;5.00;5.00;;;;;12.09;77.43;100211.13;6280181;20;2736331;-57
2023/05/08 06:07:56;;;;;;;;;11.00;9.50;;;;;12.08;77.13;100209.38;6280936;20;2776327;-57
2023/05/08 06:10:24;;;;;;;;;10.00;9.00;;;;;12.32;78.79;100212.41;6284302;20;2762779;-57
2023/05/08 06:12:52;;;;;;;;;11.00;10.00;;;;;12.51;75.89;100213.03;6276050;20;2786785;-57
2023/05/08 06:15:23;;;;;;;;;10.00;9.57;;;;;12.47;nan;100216.88;6324868;20;1806540;-57
2023/05/08 06:17:53;;;;;;;;;9.00;9.00;;;;;13.01;73.94;100215.38;6333021;20;2752355;-57
2023/05/08 06:20:20;;;;;;;;;14.00;11.00;;;;;12.88;73.14;100224.22;6313597;20;2798208;-56
2023/05/08 06:22:48;;;;;;;;;9.00;9.00;;;;;13.02;73.32;100222.50;6284378;20;2747160;-56
2023/05/08 06:25:18;;;;;;;;;11.00;9.20;;;;;12.73;72.18;100228.75;6308321;20;2758779;-56
2023/05/08 06:27:47;;;;;;;;;8.60;6.00;;;;;12.95;71.64;100228.28;6307419;20;2757583;-55
2023/05/08 06:30:18;;;;;;;;;9.00;9.00;;;;;13.70;69.52;100225.31;6352911;20;1797146;-57
2023/05/08 06:32:45;;;;;;;;;10.50;9.00;;;;;13.76;68.16;100224.88;6314276;20;2762818;-57
2023/05/08 06:35:17;;;;;;;;;11.20;10.20;;;;;13.51;69.39;100219.41;6309654;20;2788802;-58
2023/05/08 06:37:48;;;;;;;;;10.29;10.29;;;;;13.91;68.24;100224.84;6325606;20;1805001;-57
2023/05/08 06:40:17;;;;;;;;;13.20;12.00;;;;;14.47;66.35;100229.09;6334068;20;2794071;-57
2023/05/08 06:42:45;;;;;;;;;9.00;8.00;;;;;14.80;65.47;100224.19;6288746;20;2754530;-59
2023/05/08 06:45:14;;;;;;;;;9.80;8.60;;;;;14.90;66.17;100223.44;6310660;20;2751348;-60
2023/05/08 06:47:42;;;;;;;;;9.00;8.00;;;;;15.20;60.76;100224.03;6295523;20;2738932;-59
2023/05/08 06:50:09;;;;;;;;;8.00;8.00;;;;;15.31;59.55;100224.13;6289772;20;2735711;-60
2023/05/08 06:52:37;;;;;;;;;7.67;7.67;;;;;15.39;59.32;100228.97;6315355;20;1905539;-61
2023/05/08 06:55:05;;;;;;;;;8.50;7.00;;;;;14.93;59.88;100231.31;6287104;20;2738808;-61
2023/05/08 06:57:36;;;;;;;;;9.29;7.29;;;;;15.43;57.43;100230.47;6332054;20;3469051;-60
2023/05/08 07:00:03;;;;;;;;;6.00;6.00;;;;;15.75;54.72;100226.28;6321022;20;2740893;-61
2023/05/08 07:02:31;;;;;;;;;4.50;4.00;;;;;15.91;54.65;100236.84;6290319;20;2738334;-60
2023/05/08 07:04:58;;;;;;;;;5.00;5.00;;;;;16.16;54.08;100241.25;6288314;20;2745110;-64
2023/05/08 07:07:29;;;;;;;;;6.00;6.00;;;;;16.54;54.26;100242.88;6330554;20;3439868;-61
2023/05/08 07:09:56;;;;;;;;;6.00;6.00;;;;;16.39;54.65;100242.22;6320587;20;2735727;-61
2023/05/08 07:12:23;;;;;;;;;5.00;5.00;;;;;16.14;54.12;100242.34;6288937;20;2750316;-62
2023/05/08 07:14:51;;;;;;;;;5.50;5.50;;;;;16.36;54.03;100239.75;6289148;20;2748302;-60
2023/05/08 07:17:18;;;;;;;;;8.00;5.50;;;;;16.43;52.78;100241.00;6291578;20;2748283;-62
2023/05/08 07:19:50;;;;;;;;;5.14;5.14;;;;;16.53;54.27;100243.00;6329711;20;3461819;-60
2023/05/08 07:22:17;;;;;;;;;4.50;4.00;;;;;16.66;52.98;100246.47;6322576;20;2732554;-61
2023/05/08 07:24:46;;;;;;;;;4.40;4.40;;;;;16.07;52.59;100241.13;6311282;20;2752400;-62
2023/05/08 07:27:14;;;;;;;;;3.00;3.00;;;;;16.17;53.70;100247.56;6321019;20;2753490;-61
2023/05/08 07:29:41;;;;;;;;;6.00;6.00;;;;;17.08;51.75;100249.53;6291848;20;2734705;-61
2023/05/08 07:32:09;;;;;;;;;4.00;4.00;;;;;16.41;52.98;100248.38;6290035;20;2747158;-61
2023/05/08 07:34:36;;;;;;;;;4.00;4.00;;;;;17.00;51.96;100252.00;6290935;20;2753424;-61
2023/05/08 07:37:03;;;;;;;;;5.00;3.50;;;;;16.92;51.12;100244.47;6287545;20;2746098;-62
2023/05/08 07:39:31;;;;;;;;;2.50;2.50;;;;;16.76;51.31;100249.34;6291186;20;2732635;-61
2023/05/08 07:41:58;;;;;;;;;3.50;3.50;;;;;16.91;51.52;100247.31;6287722;20;2751401;-61
2023/05/08 07:44:25;;;;;;;;;5.00;4.00;;;;;17.27;52.07;100249.81;6289290;20;2750282;-61
2023/05/08 07:46:52;;;;;;;;;6.00;5.00;;;;;16.97;50.06;100252.25;6290085;20;2749244;-62
2023/05/08 07:49:20;;;;;;;;;4.00;4.00;;;;;16.40;51.86;100243.97;6288314;20;2754566;-62
2023/05/08 07:51:47;;;;;;;;;4.00;4.00;;;;;16.59;50.27;100253.38;6289584;20;2752364;-62
2023/05/08 07:54:15;;;;;;;;;3.00;3.00;;;;;17.04;50.65;100253.50;6291391;20;2748228;-62
2023/05/08 07:56:42;;;;;;;;;3.00;3.00;;;;;17.39;49.08;100247.09;6290196;20;2727828;-59
2023/05/08 07:59:09;;;;;;;;;3.00;3.00;;;;;17.06;48.73;100248.78;6290386;20;2736760;-60
2023/05/08 08:01:36;;;;;;;;;3.00;3.00;;;;;17.44;48.66;100255.72;6290519;20;2735726;-62
2023/05/08 08:04:04;;;;;;;;;2.00;2.00;;;;;17.69;48.90;100257.28;6294123;20;2727513;-63
2023/05/08 08:06:33;;;;;;;;;2.80;2.80;;;;;16.97;50.08;100241.41;6323151;20;2755554;-63
2023/05/08 08:09:01;;;;;;;;;2.00;2.00;;;;;16.58;49.58;100248.94;6284893;20;2748327;-62
2023/05/08 08:11:28;;;;;;;;;3.00;3.00;;;;;18.09;48.57;100240.41;6288566;20;2746636;-62
2023/05/08 08:13:56;;;;;;;;;2.50;2.50;;;;;17.62;47.85;100247.94;6293717;20;2737890;-62
2023/05/08 08:16:23;;;;;;;;;5.00;3.00;;;;;18.34;47.50;100244.63;6287884;20;2744047;-62
2023/05/08 08:18:51;;;;;;;;;3.00;3.00;;;;;18.30;46.52;100254.03;6291497;20;2737839;-62
2023/05/08 08:21:19;;;;;;;;;3.00;3.00;;;;;18.40;45.84;100249.53;6289477;20;2737766;-61
2023/05/08 08:23:46;;;;;;;;;3.00;3.00;;;;;17.88;45.13;100245.81;6291583;20;2739869;-62
2023/05/08 08:26:13;;;;;;;;;4.00;2.00;;;;;17.98;45.87;100249.47;6288940;20;2739974;-62
2023/05/08 08:28:40;;;;;;;;;4.00;3.00;;;;;17.96;45.98;100244.16;6290536;20;2756623;-61
2023/05/08 08:31:07;;;;;;;;;3.00;2.00;;;;;17.72;46.09;100241.59;6289782;20;2744039;-63
2023/05/08 08:33:35;;;;;;;;;2.00;2.00;;;;;17.47;48.43;100239.19;6291797;20;2744052;-62
2023/05/08 08:36:02;;;;;;;;;2.00;2.00;;;;;16.86;48.97;100243.09;6286416;20;2746242;-62
2023/05/08 08:38:30;;;;;;;;;2.00;2.00;;;;;17.63;48.28;100239.63;6288874;20;2735860;-63
2023/05/08 08:40:57;;;;;;;;;3.00;3.00;;;;;17.45;47.85;100241.16;6292057;20;2735735;-62
2023/05/08 08:43:25;;;;;;;;;2.00;2.00;;;;;18.38;47.62;100238.81;6290152;20;2752770;-62
2023/05/08 08:45:53;;;;;;;;;2.00;2.00;;;;;18.78;46.45;100242.72;6287350;20;2755543;-63
2023/05/08 08:48:27;;;;;;;;;2.50;2.50;;;;;18.53;43.63;100238.47;6290437;20;2726387;-60
2023/05/08 08:51:02;;;;;;;;;1.00;1.00;;;;;17.80;45.76;100237.41;6289813;20;2729436;-59
2023/05/08 08:53:39;;;;;;;;;1.00;1.00;;;;;17.39;48.35;100225.38;6289590;20;2727396;-59
2023/05/08 08:56:07;;;;;;;;;2.00;1.00;;;;;17.95;45.65;100236.13;6288473;20;2729492;-59
2023/05/08 08:58:48;;;;;;;;;1.00;1.00;;;;;18.70;46.00;100245.22;6287064;20;2731564;-59
2023/05/08 09:01:18;;;;;;;;;2.50;2.50;;;;;18.27;45.50;100244.28;6287157;20;2752372;-59
2023/05/08 09:03:45;;;;;;;;;2.00;2.00;;;;;18.50;45.51;100239.59;6287426;20;2741986;-60
2023/05/08 09:06:16;;;;;;;;;2.00;2.00;;;;;18.05;46.42;100234.38;6286488;20;2748191;-60
2023/05/08 09:08:43;;;;;;;;;2.00;1.00;;;;;19.05;45.19;100240.28;6291273;20;2730465;-60
2023/05/08 09:11:11;;;;;;;;;1.50;1.00;;;;;19.05;45.19;100242.13;6289769;20;2727510;-60
2023/05/08 09:13:38;;;;;;;;;1.00;1.00;;;;;18.19;43.55;100241.34;6294599;20;2735695;-60
2023/05/08 09:16:06;;;;;;;;;2.50;1.00;;;;;18.72;45.41;100248.63;6294489;20;2733622;-59
2023/05/08 09:18:33;;;;;;;;;2.50;2.50;;;;;17.64;46.73;100245.94;6287518;20;2724214;-61
2023/05/08 09:21:01;;;;;;;;;2.00;2.00;;;;;18.75;45.02;100240.25;6291924;20;2746221;-60
2023/05/08 09:23:28;;;;;;;;;2.00;2.00;;;;;18.58;45.19;100244.38;6289862;20;2728407;-60
2023/05/08 09:25:55;;;;;;;;;0.00;0.00;;;;;18.60;45.41;100243.25;6286908;20;2729499;-60
2023/05/08 09:28:25;;;;;;;;;2.00;2.00;;;;;18.24;46.36;100238.25;6293359;20;2746171;-60
2023/05/08 09:30:57;;;;;;;;;2.00;2.00;;;;;17.41;48.89;100239.69;6288525;20;2750362;-62
2023/05/08 09:33:27;;;;;;;;;2.50;2.50;;;;;18.51;47.26;100241.34;6287619;20;2735782;-62
2023/05/08 09:35:56;;;;;;;;;2.50;2.50;;;;;19.43;45.21;100241.47;6287897;20;2754460;-62
2023/05/08 09:38:38;;;;;;;;;3.00;3.00;;;;;18.75;45.55;100243.84;6287918;20;2736734;-62
2023/05/08 09:41:15;;;;;;;;;4.00;2.00;;;;;18.00;46.25;100242.06;6287998;20;2746126;-62
2023/05/08 09:43:44;;;;;;;;;4.00;3.00;;;;;17.92;46.89;100233.69;6291199;20;2733703;-62
2023/05/08 09:46:25;;;;;;;;;3.00;2.00;;;;;18.28;47.43;100234.31;6288625;20;2750372;-62
2023/05/08 09:48:56;;;;;;;;;0.00;0.00;;;;;18.53;45.58;100233.03;6289427;20;2726418;-63
2023/05/08 09:51:25;;;;;;;;;2.00;2.00;;;;;18.75;47.38;100238.41;6291763;20;2740035;-62
2023/05/08 09:53:56;;;;;;;;;2.00;2.00;;;;;19.58;44.73;100230.16;6288531;20;2744060;-62
2023/05/08 09:56:37;;;;;;;;;2.67;2.33;;;;;19.51;43.62;100236.19;6316291;20;2738891;-62
2023/05/08 09:59:28;;;;;;;;;1.00;1.00;;;;;19.90;44.33;100230.84;6313483;20;2727391;-61
2023/05/08 10:01:57;;;;;;;;;1.00;1.00;;;;;19.13;42.95;100230.56;6318480;20;2727436;-62
2023/05/08 10:04:34;;;;;;;;;1.33;0.67;;;;;19.79;44.76;100225.53;6291503;20;2729474;-62
2023/05/08 10:07:03;;;;;;;;;1.00;1.00;;;;;19.80;44.42;100219.09;6317024;20;2720171;-61
2023/05/08 10:09:31;;;;;;;;;2.33;1.33;;;;;19.30;41.95;100227.22;6320137;20;2730536;-62
2023/05/08 10:12:16;;;;;;;;;1.67;1.67;;;;;19.43;42.16;100222.41;6317758;20;2735823;-61
2023/05/08 10:14:44;;;;;;;;;1.00;1.00;;;;;19.78;43.02;100226.53;6316232;20;2729585;-62
2023/05/08 10:17:22;;;;;;;;;1.00;1.00;;;;;20.07;41.14;100212.94;6323829;20;2727402;-62
2023/05/08 10:19:58;;;;;;;;;1.00;1.00;;;;;19.74;42.51;100219.63;6324072;20;2728378;-61
2023/05/08 10:22:28;;;;;;;;;1.00;1.00;;;;;19.41;42.63;100212.66;6323681;20;2720096;-63
2023/05/08 10:24:58;;;;;;;;;0.00;0.00;;;;;19.38;42.04;100216.50;6324103;20;2727369;-61
2023/05/08 10:28:00;;;;;;;;;0.00;0.00;;;;;19.34;41.87;100220.50;6321938;20;2729532;-62
2023/05/08 10:30:30;;;;;;;;;0.00;0.00;;;;;19.16;40.15;100211.25;6320608;20;2727786;-62
2023/05/08 10:33:06;;;;;;;;;2.00;0.00;;;;;19.61;41.21;100208.94;6320734;20;2730442;-62
2023/05/08 10:35:36;;;;;;;;;0.00;0.00;;;;;19.44;40.61;100205.03;6323631;20;2729793;-62
2023/05/08 10:38:08;;;;;;;;;1.00;1.00;;;;;19.87;41.55;100203.88;6322593;20;2725276;-60
2023/05/08 10:40:37;;;;;;;;;0.00;0.00;;;;;20.20;39.49;100204.47;6322036;20;2727420;-62
2023/05/08 10:43:06;;;;;;;;;0.00;0.00;;;;;20.10;40.77;100203.63;6319074;20;2724291;-61
2023/05/08 10:45:36;;;;;;;;;0.33;0.33;;;;;19.52;39.20;100204.34;6314602;20;2726346;-64
2023/05/08 10:48:14;;;;;;;;;1.00;1.00;;;;;19.70;39.28;100201.84;6320600;20;2728569;-62
2023/05/08 10:51:11;;;;;;;;;0.00;0.00;;;;;19.79;40.84;100211.03;6318619;20;2728470;-61
2023/05/08 10:53:56;;;;;;;;;0.00;0.00;;;;;20.00;40.52;100205.47;6322415;20;2727395;-61
2023/05/08 10:56:27;;;;;;;;;0.00;0.00;;;;;20.87;40.08;100210.00;6316936;20;2727564;-61
2023/05/08 10:58:57;;;;;;;;;1.00;1.00;;;;;19.86;40.00;100199.44;6321403;20;2723167;-61
2023/05/08 11:01:26;;;;;;;;;0.00;0.00;;;;;20.05;39.42;100195.84;6324053;20;2727331;-61
2023/05/08 11:03:54;;;;;;;;;2.00;1.00;;;;;20.20;39.93;100198.19;6324117;20;2725288;-62
2023/05/08 11:06:47;;;;;;;;;0.00;0.00;;;;;19.46;41.24;100185.84;6321397;20;2731603;-60
2023/05/08 11:09:27;;;;;;;;;0.67;0.67;;;;;20.09;41.50;100191.84;6321762;20;2724245;-61
2023/05/08 11:12:09;;;;;;;;;1.00;1.00;;;;;20.38;41.82;100191.84;6322309;20;2733617;-61
2023/05/08 11:14:41;;;;;;;;;1.00;1.00;;;;;20.39;40.76;100195.41;6321502;20;2723224;-61
2023/05/08 11:17:10;;;;;;;;;0.67;0.67;;;;;20.06;39.87;100188.53;6322017;20;2731638;-60
2023/05/08 11:19:57;;;;;;;;;0.67;0.00;;;;;19.85;40.54;100191.38;6319985;20;2727437;-61
2023/05/08 11:22:35;;;;;;;;;0.33;0.00;;;;;19.44;39.99;100193.31;6321491;20;2724351;-61
2023/05/08 11:25:09;;;;;;;;;0.00;0.00;;;;;20.14;40.46;100194.13;6322042;20;2730618;-61